Zirfaea — PBZV — position and weather

sailwx.info

Track history (hours):
 
Tides and Currents Weather Stations Pressure Air Temp Water Temp Dewpoint Dewpoint Depression Visibility Wind Speed Wind Dir Waves Ship Positions

Oceanographic research ship Zirfaea (Netherlands)

Detailed information on ship capabilities available from University of Delaware's Ocean Information Center.

Last reported at 2019-Apr-18 20:58 UTC. Time now 2019-Apr-18 21:03 UTC.
Position N 52°06' E 004°16'.

Length 63 m; draft 3.9 m.

Type: Law enforcement. MMSI: 246096000.

Date/timePositionNaut miles runAvg speedWind from/ knotsBaromVisibWave heightAir tempDewpointWater temp
2019-Apr-18 20:58N 52°06' E 004°16'0 0.0
2019-Apr-18 20:28N 52°06' E 004°16'0 0.0
2019-Apr-18 19:58N 52°06' E 004°16'0 0.0
2019-Apr-18 19:28N 52°06' E 004°16'0 0.0
2019-Apr-18 18:58N 52°06' E 004°16'0 0.0
2019-Apr-18 18:28N 52°06' E 004°16'0 0.0
2019-Apr-18 17:58N 52°06' E 004°16'0 0.0
2019-Apr-18 17:28N 52°06' E 004°16'0 0.0
2019-Apr-18 16:58N 52°06' E 004°16'0 0.0
2019-Apr-18 16:28N 52°06' E 004°16'0 0.0
2019-Apr-18 15:58N 52°06' E 004°16'0 0.0
2019-Apr-18 15:28N 52°06' E 004°16'0 0.0
2019-Apr-18 14:58N 52°06' E 004°16'0 0.0
2019-Apr-18 14:28N 52°06' E 004°16'0 0.0
2019-Apr-18 13:58N 52°06' E 004°16'0 0.0
2019-Apr-18 13:28N 52°06' E 004°16'0 0.0
2019-Apr-18 12:58N 52°06' E 004°16'0 0.0
2019-Apr-18 12:28N 52°06' E 004°16'5 5.3
2019-Apr-18 11:30N 52°04' E 004°08'510.1
2019-Apr-18 11:00N 52°01' E 004°01'5 9.2
2019-Apr-18 10:30N 51°58' E 003°56'2 4.3
2019-Apr-18 10:00N 51°56' E 003°54'4 8.0
2019-Apr-18 09:30N 51°52' E 003°52'1 2.7
2019-Apr-18 09:00N 51°52' E 003°50'1 2.2
2019-Apr-18 08:30N 51°51' E 003°50'3 5.4
2019-Apr-18 07:54N 51°50' E 003°45'4 7.3
2019-Apr-18 07:17N 51°47' E 003°39'4 7.2
2019-Apr-18 06:41N 51°45' E 003°32'1 5.7
2019-Apr-18 06:29N 51°45' E 003°31'2 3.1
2019-Apr-18 05:58N 51°43' E 003°29'1 1.6
2019-Apr-18 05:30N 51°44' E 003°28'0 0.1
2019-Apr-18 04:57N 51°44' E 003°28'1 2.6
2019-Apr-18 04:30N 51°44' E 003°26'0 0.3
2019-Apr-18 03:59N 51°44' E 003°26'1 0.9
2019-Apr-18 03:25N 51°43' E 003°27'0 0.2
2019-Apr-18 02:48N 51°43' E 003°27'1 0.2
2019-Apr-17 23:17N 51°44' E 003°27'1 4.6
2019-Apr-17 22:59N 51°43' E 003°26'9 5.1
2019-Apr-17 21:14N 51°34' E 003°25'1 2.5
2019-Apr-17 20:56N 51°33' E 003°25'910.0
2019-Apr-17 20:01N 51°39' E 003°14'6 8.0
2019-Apr-17 19:17N 51°44' E 003°09'17 9.9
2019-Apr-17 17:32N 51°54' E 002°46'010.5
2019-Apr-17 17:30N 51°54' E 002°46'4 6.7
2019-Apr-17 16:50N 51°57' E 002°40'6 8.7
2019-Apr-17 16:06N 52°02' E 002°47'14 9.9
2019-Apr-17 14:41N 52°13' E 003°02'2 9.4
2019-Apr-17 14:28N 52°15' E 003°03'11 9.1
2019-Apr-17 13:13N 52°24' E 003°14'52 8.7
2019-Apr-17 07:19N 52°58' E 004°18'310.7
2019-Apr-17 07:00N 52°57' E 004°24'510.1
2019-Apr-17 06:30N 53°01' E 004°29'510.9
2019-Apr-17 06:00N 53°06' E 004°34'510.7
2019-Apr-17 05:30N 53°10' E 004°39'510.1
2019-Apr-17 04:58N 53°15' E 004°44'59 1.9
2019-Apr-15 22:39N 53°30' E 003°09'1 9.9
2019-Apr-15 22:31N 53°29' E 003°09'5 9.8
2019-Apr-15 22:00N 53°24' E 003°10'5 9.7
2019-Apr-15 21:30N 53°19' E 003°10'5 9.6
2019-Apr-15 21:00N 53°14' E 003°10'5 9.2
2019-Apr-15 20:30N 53°10' E 003°11'4 9.0
2019-Apr-15 20:00N 53°05' E 003°11'4 8.7
2019-Apr-15 19:30N 53°01' E 003°12'4 8.7
2019-Apr-15 19:00N 52°57' E 003°12'4 8.7
2019-Apr-15 18:30N 52°52' E 003°14'21 9.2
2019-Apr-15 16:10N 52°34' E 003°32'3 5.1
2019-Apr-15 15:31N 52°32' E 003°36'1 9.0
2019-Apr-15 15:24N 52°32' E 003°38'510.3
2019-Apr-15 14:58N 52°29' E 003°44'510.4
2019-Apr-15 14:29N 52°27' E 003°52'510.0
2019-Apr-15 14:00N 52°25' E 003°58'510.0
2019-Apr-15 13:30N 52°22' E 004°05'4 7.3
2019-Apr-15 13:00N 52°20' E 004°10'3 6.7
2019-Apr-15 12:31N 52°19' E 004°15'2 4.6
2019-Apr-15 12:01N 52°18' E 004°18'4 8.0
2019-Apr-15 11:30N 52°16' E 004°24'1 1.5
2019-Apr-15 11:00N 52°15' E 004°24'2 4.8
2019-Apr-15 10:30N 52°14' E 004°21'3 6.1
2019-Apr-15 10:01N 52°11' E 004°18'4 7.7
2019-Apr-15 09:30N 52°08' E 004°15'2 3.3
2019-Apr-15 08:59N 52°06' E 004°16'0 0.0
2019-Apr-15 08:29N 52°06' E 004°16'0 0.0
2019-Apr-15 07:59N 52°06' E 004°16'0 0.0
2019-Apr-15 06:59N 52°06' E 004°16'0 0.0
2019-Apr-15 06:29N 52°06' E 004°16'0 0.0
2019-Apr-15 05:59N 52°06' E 004°16'0 0.0
2019-Apr-15 05:29N 52°06' E 004°16'0 0.0
2019-Apr-15 04:59N 52°06' E 004°16'0 0.0
2019-Apr-15 04:29N 52°06' E 004°16'0 0.0
2019-Apr-15 03:59N 52°06' E 004°16'0 0.0
2019-Apr-15 03:29N 52°06' E 004°16'0 0.0
2019-Apr-15 02:56N 52°06' E 004°16'0 0.0
2019-Apr-15 02:29N 52°06' E 004°16'0 0.0
2019-Apr-15 01:59N 52°06' E 004°16'0 0.0
2019-Apr-15 01:29N 52°06' E 004°16'0 0.0
2019-Apr-15 00:59N 52°06' E 004°16'0 0.0
2019-Apr-15 00:29N 52°06' E 004°16'0 0.0
2019-Apr-14 23:59N 52°06' E 004°16'0 0.0
2019-Apr-14 23:29N 52°06' E 004°16'0 0.0
2019-Apr-14 22:59N 52°06' E 004°16'0 0.0
2019-Apr-14 22:29N 52°06' E 004°16'0 0.0
2019-Apr-14 21:59N 52°06' E 004°16'0 0.0
2019-Apr-14 21:29N 52°06' E 004°16'0 0.0
2019-Apr-14 20:59N 52°06' E 004°16'0 0.0
2019-Apr-14 20:20N 52°06' E 004°16'0 0.0
2019-Apr-14 19:56N 52°06' E 004°16'0 0.0
2019-Apr-14 19:29N 52°06' E 004°16'0 0.0
2019-Apr-14 18:59N 52°06' E 004°16'0 0.0
2019-Apr-14 18:29N 52°06' E 004°16'0 0.0
2019-Apr-14 17:59N 52°06' E 004°16'0 0.0
2019-Apr-14 17:29N 52°06' E 004°16'0 0.0
2019-Apr-14 16:59N 52°06' E 004°16'0 0.0
2019-Apr-14 16:29N 52°06' E 004°16'0 0.0
2019-Apr-14 15:59N 52°06' E 004°16'0 0.0
2019-Apr-14 15:29N 52°06' E 004°16'0 0.0
2019-Apr-14 14:59N 52°06' E 004°16'0 0.0
2019-Apr-14 14:29N 52°06' E 004°16'0 0.0
2019-Apr-14 13:59N 52°06' E 004°16'0 0.0
2019-Apr-14 13:29N 52°06' E 004°16'0 0.0
2019-Apr-14 12:59N 52°06' E 004°16'0 0.0
2019-Apr-14 12:29N 52°06' E 004°16'0 0.0
2019-Apr-14 11:59N 52°06' E 004°16'0 0.0
2019-Apr-14 10:59N 52°06' E 004°16'0 0.0
2019-Apr-14 10:29N 52°06' E 004°16'0 0.0
2019-Apr-14 09:59N 52°06' E 004°16'0 0.0
2019-Apr-14 09:29N 52°06' E 004°16'0 0.0
2019-Apr-14 08:59N 52°06' E 004°16'0 0.0
2019-Apr-14 08:29N 52°06' E 004°16'0 0.0
2019-Apr-14 07:59N 52°06' E 004°16'0 0.0
2019-Apr-14 07:29N 52°06' E 004°16'0 0.0
2019-Apr-14 06:59N 52°06' E 004°16'0 0.0
2019-Apr-14 06:29N 52°06' E 004°16'0 0.0
2019-Apr-14 05:59N 52°06' E 004°16'0 0.0
2019-Apr-14 05:29N 52°06' E 004°16'0 0.0
2019-Apr-14 04:59N 52°06' E 004°16'0 0.0
2019-Apr-14 04:29N 52°06' E 004°16'0 0.0
2019-Apr-14 03:59N 52°06' E 004°16'0 0.0
2019-Apr-14 03:29N 52°06' E 004°16'0 0.0
2019-Apr-14 02:59N 52°06' E 004°16'0 0.0
2019-Apr-14 02:29N 52°06' E 004°16'0 0.0
2019-Apr-14 01:59N 52°06' E 004°16'0 0.0
2019-Apr-14 01:29N 52°06' E 004°16'0 0.0
2019-Apr-14 00:56N 52°06' E 004°16'0 0.0
2019-Apr-14 00:29N 52°06' E 004°16'0 0.0
2019-Apr-13 23:59N 52°06' E 004°16'0 0.0
2019-Apr-13 23:29N 52°06' E 004°16'0 0.0
2019-Apr-13 22:59N 52°06' E 004°16'0 0.0
2019-Apr-13 22:29N 52°06' E 004°16'0 0.0
2019-Apr-13 21:59N 52°06' E 004°16'0 0.0
2019-Apr-13 21:29N 52°06' E 004°16'0 0.0
2019-Apr-13 20:59N 52°06' E 004°16'0 0.0
2019-Apr-13 20:29N 52°06' E 004°16'0 0.0
2019-Apr-13 19:56N 52°06' E 004°16'0 0.0
2019-Apr-13 19:29N 52°06' E 004°16'0 0.0
2019-Apr-13 18:59N 52°06' E 004°16'0 0.0
2019-Apr-13 18:29N 52°06' E 004°16'0 0.0
2019-Apr-13 17:59N 52°06' E 004°16'0 0.0
2019-Apr-13 17:26N 52°06' E 004°16'0 0.0
2019-Apr-13 16:56N 52°06' E 004°16'0 0.0
2019-Apr-13 16:29N 52°06' E 004°16'0 0.0
2019-Apr-13 15:59N 52°06' E 004°16'0 0.0
2019-Apr-13 15:29N 52°06' E 004°16'0 0.0
2019-Apr-13 14:59N 52°06' E 004°16'0 0.0
2019-Apr-13 14:29N 52°06' E 004°16'0 0.0
2019-Apr-13 13:59N 52°06' E 004°16'0 0.0
2019-Apr-13 13:29N 52°06' E 004°16'0 0.0
2019-Apr-13 12:59N 52°06' E 004°16'0 0.0
2019-Apr-13 12:29N 52°06' E 004°16'0 0.0
2019-Apr-13 11:59N 52°06' E 004°16'0 0.0
2019-Apr-13 11:29N 52°06' E 004°16'0 0.0
2019-Apr-13 10:59N 52°06' E 004°16'0 0.0
2019-Apr-13 10:29N 52°06' E 004°16'0 0.0
2019-Apr-13 09:29N 52°06' E 004°16'0 0.0
2019-Apr-13 08:59N 52°06' E 004°16'0 0.0
2019-Apr-13 08:29N 52°06' E 004°16'0 0.0
2019-Apr-13 07:59N 52°06' E 004°16'0 0.0
2019-Apr-13 07:30N 52°06' E 004°16'0 0.0
2019-Apr-13 06:59N 52°06' E 004°16'0 0.0
2019-Apr-13 06:29N 52°06' E 004°16'0 0.0
2019-Apr-13 05:59N 52°06' E 004°16'0 0.0
2019-Apr-13 05:29N 52°06' E 004°16'0 0.0
2019-Apr-13 04:59N 52°06' E 004°16'0 0.0
2019-Apr-13 04:29N 52°06' E 004°16'0 0.0
2019-Apr-13 03:59N 52°06' E 004°16'0 0.0
2019-Apr-13 03:29N 52°06' E 004°16'0 0.0
2019-Apr-13 02:59N 52°06' E 004°16'0 0.0
2019-Apr-13 02:29N 52°06' E 004°16'0 0.0
2019-Apr-13 01:59N 52°06' E 004°16'0 0.0
2019-Apr-13 01:29N 52°06' E 004°16'0 0.0
2019-Apr-13 00:59N 52°06' E 004°16'0 0.0
2019-Apr-13 00:29N 52°06' E 004°16'0 0.0
2019-Apr-12 23:59N 52°06' E 004°16'0 0.0
2019-Apr-12 23:29N 52°06' E 004°16'0 0.0
2019-Apr-12 22:59N 52°06' E 004°16'0 0.0
2019-Apr-12 22:26N 52°06' E 004°16'0 0.0
2019-Apr-12 21:59N 52°06' E 004°16'0 0.0
2019-Apr-12 21:29N 52°06' E 004°16'0 0.0
2019-Apr-12 21:00N 52°06' E 004°16'0 0.0
2019-Apr-12 20:29N 52°06' E 004°16'0 0.0
2019-Apr-12 19:59N 52°06' E 004°16'0 0.0
2019-Apr-12 19:29N 52°06' E 004°16'0 0.0
2019-Apr-12 18:59N 52°06' E 004°16'0 0.0
2019-Apr-12 18:29N 52°06' E 004°16'0 0.0
2019-Apr-12 17:56N 52°06' E 004°16'0 0.0
2019-Apr-12 17:29N 52°06' E 004°16'0 0.0
2019-Apr-12 16:59N 52°06' E 004°16'0 0.0
2019-Apr-12 16:29N 52°06' E 004°16'0 0.0
2019-Apr-12 15:59N 52°06' E 004°16'0 0.0
2019-Apr-12 15:29N 52°06' E 004°16'0 0.0
2019-Apr-12 14:59N 52°06' E 004°16'0 0.0
2019-Apr-12 14:29N 52°06' E 004°16'0 0.0
2019-Apr-12 13:59N 52°06' E 004°16'0 0.0
2019-Apr-12 13:29N 52°06' E 004°16'0 0.0
2019-Apr-12 12:59N 52°06' E 004°16'0 0.0
2019-Apr-12 12:29N 52°06' E 004°16'0 0.0
2019-Apr-12 11:59N 52°06' E 004°16'0 0.0
2019-Apr-12 11:29N 52°06' E 004°16'0 0.0
2019-Apr-12 10:59N 52°06' E 004°16'0 0.0
2019-Apr-12 10:29N 52°06' E 004°16'0 0.0
2019-Apr-12 09:59N 52°06' E 004°16'0 0.0
2019-Apr-12 09:29N 52°06' E 004°16'0 0.0
2019-Apr-12 08:59N 52°06' E 004°16'0 0.0
2019-Apr-12 08:29N 52°06' E 004°16'0 0.0
2019-Apr-12 07:59N 52°06' E 004°16'0 0.0
2019-Apr-12 07:29N 52°06' E 004°16'0 0.0
2019-Apr-12 06:59N 52°06' E 004°16'0 0.0
2019-Apr-12 06:29N 52°06' E 004°16'0 0.0
2019-Apr-12 05:59N 52°06' E 004°16'0 0.0
2019-Apr-12 05:29N 52°06' E 004°16'0 0.0
2019-Apr-12 04:59N 52°06' E 004°16'0 0.0
2019-Apr-12 04:29N 52°06' E 004°16'0 0.0
2019-Apr-12 03:59N 52°06' E 004°16'0 0.0
2019-Apr-12 03:29N 52°06' E 004°16'0 0.0
2019-Apr-12 02:59N 52°06' E 004°16'0 0.0
2019-Apr-12 02:29N 52°06' E 004°16'0 0.0
2019-Apr-12 01:59N 52°06' E 004°16'0 0.0
2019-Apr-12 01:29N 52°06' E 004°16'0 0.0
2019-Apr-12 00:59N 52°06' E 004°16'0 0.0
2019-Apr-12 00:29N 52°06' E 004°16'0 0.0
2019-Apr-11 23:59N 52°06' E 004°16'0 0.0
2019-Apr-11 23:29N 52°06' E 004°16'0 0.0
2019-Apr-11 22:59N 52°06' E 004°16'0 0.0
2019-Apr-11 22:29N 52°06' E 004°16'0 0.0
2019-Apr-11 21:59N 52°06' E 004°16'0 0.0
2019-Apr-11 21:29N 52°06' E 004°16'0 0.0
2019-Apr-11 20:59N 52°06' E 004°16'0 0.0
2019-Apr-11 20:29N 52°06' E 004°16'0 0.0
2019-Apr-11 19:59N 52°06' E 004°16'0 0.0
2019-Apr-11 19:29N 52°06' E 004°16'0 0.0
2019-Apr-11 18:59N 52°06' E 004°16'0 0.0
2019-Apr-11 18:29N 52°06' E 004°16'0 0.0
2019-Apr-11 17:59N 52°06' E 004°16'0 0.0
2019-Apr-11 17:29N 52°06' E 004°16'0 0.0
2019-Apr-11 16:59N 52°06' E 004°16'0 0.0
2019-Apr-11 16:29N 52°06' E 004°16'0 0.0
2019-Apr-11 15:59N 52°06' E 004°16'0 0.0
2019-Apr-11 15:29N 52°06' E 004°16'0 0.0
2019-Apr-11 14:59N 52°06' E 004°16'0 0.0
2019-Apr-11 14:29N 52°06' E 004°16'0 0.0
2019-Apr-11 13:59N 52°06' E 004°16'0 0.0
2019-Apr-11 13:29N 52°06' E 004°16'0 0.0
2019-Apr-11 12:59N 52°06' E 004°16'0 0.0
2019-Apr-11 12:29N 52°06' E 004°16'0 0.0
2019-Apr-11 11:59N 52°06' E 004°16'0 0.0
2019-Apr-11 11:29N 52°06' E 004°16'0 0.0
2019-Apr-11 10:59N 52°06' E 004°16'0 0.0
2019-Apr-11 10:29N 52°06' E 004°16'0 0.0
2019-Apr-11 09:59N 52°06' E 004°16'0 0.0
2019-Apr-11 09:29N 52°06' E 004°16'0 0.0
2019-Apr-11 08:59N 52°06' E 004°16'0 0.0
2019-Apr-11 08:29N 52°06' E 004°16'0 0.0
2019-Apr-11 07:29N 52°06' E 004°16'0 0.0
2019-Apr-11 06:59N 52°06' E 004°16'0 0.0
2019-Apr-11 06:29N 52°06' E 004°16'0 0.0
2019-Apr-11 05:59N 52°06' E 004°16'0 0.0
2019-Apr-11 05:29N 52°06' E 004°16'0 0.0
2019-Apr-11 04:59N 52°06' E 004°16'0 0.0
2019-Apr-11 04:29N 52°06' E 004°16'0 0.0
2019-Apr-11 03:59N 52°06' E 004°16'0 0.0
2019-Apr-11 03:29N 52°06' E 004°16'0 0.0
2019-Apr-11 02:59N 52°06' E 004°16'0 0.0
2019-Apr-11 02:29N 52°06' E 004°16'0 0.0
2019-Apr-11 01:56N 52°06' E 004°16'0 0.0
2019-Apr-11 01:29N 52°06' E 004°16'0 0.0
2019-Apr-11 00:59N 52°06' E 004°16'0 0.0
2019-Apr-11 00:29N 52°06' E 004°16'0 0.0
2019-Apr-10 23:59N 52°06' E 004°16'0 0.0
2019-Apr-10 23:29N 52°06' E 004°16'0 0.0
2019-Apr-10 22:59N 52°06' E 004°16'0 0.0
2019-Apr-10 22:29N 52°06' E 004°16'0 0.0
2019-Apr-10 21:59N 52°06' E 004°16'0 0.0
2019-Apr-10 21:29N 52°06' E 004°16'0 0.0
2019-Apr-10 20:59N 52°06' E 004°16'0 0.0
2019-Apr-10 20:29N 52°06' E 004°16'0 0.0
2019-Apr-10 19:59N 52°06' E 004°16'0 0.0
2019-Apr-10 19:29N 52°06' E 004°16'0 0.0
2019-Apr-10 18:59N 52°06' E 004°16'0 0.0
2019-Apr-10 18:29N 52°06' E 004°16'0 0.0
2019-Apr-10 17:59N 52°06' E 004°16'0 0.0
2019-Apr-10 17:29N 52°06' E 004°16'0 0.0
2019-Apr-10 16:59N 52°06' E 004°16'0 0.0
2019-Apr-10 16:29N 52°06' E 004°16'0 0.0
2019-Apr-10 15:59N 52°06' E 004°16'0 0.0
2019-Apr-10 15:29N 52°06' E 004°16'0 0.0
2019-Apr-10 14:59N 52°06' E 004°16'0 0.0
2019-Apr-10 14:29N 52°06' E 004°16'0 0.0
2019-Apr-10 13:59N 52°06' E 004°16'0 0.0
2019-Apr-10 13:29N 52°06' E 004°16'0 0.0
2019-Apr-10 12:59N 52°06' E 004°16'0 0.0
2019-Apr-10 12:29N 52°06' E 004°16'0 0.0
2019-Apr-10 11:59N 52°06' E 004°16'0 0.0
2019-Apr-10 11:29N 52°06' E 004°16'0 0.0
2019-Apr-10 10:59N 52°06' E 004°16'0 0.0
2019-Apr-10 10:29N 52°06' E 004°16'0 0.0
2019-Apr-10 09:59N 52°06' E 004°16'0 0.0
2019-Apr-10 09:29N 52°06' E 004°16'0 0.0
2019-Apr-10 08:59N 52°06' E 004°16'0 0.0
2019-Apr-10 08:29N 52°06' E 004°16'0 0.0
2019-Apr-10 07:59N 52°06' E 004°16'0 0.0
2019-Apr-10 07:29N 52°06' E 004°16'0 0.0
2019-Apr-10 06:59N 52°06' E 004°16'0 0.0
2019-Apr-10 06:29N 52°06' E 004°16'0 0.0
2019-Apr-10 05:59N 52°06' E 004°16'0 0.0
2019-Apr-10 05:29N 52°06' E 004°16'0 0.0
2019-Apr-10 04:59N 52°06' E 004°16'0 0.0
2019-Apr-10 04:29N 52°06' E 004°16'0 0.0
2019-Apr-10 03:59N 52°06' E 004°16'0 0.0
2019-Apr-10 03:29N 52°06' E 004°16'0 0.0
2019-Apr-10 02:59N 52°06' E 004°16'0 0.0
2019-Apr-10 02:29N 52°06' E 004°16'0 0.0
2019-Apr-10 01:59N 52°06' E 004°16'0 0.0
2019-Apr-10 01:29N 52°06' E 004°16'0 0.0
2019-Apr-10 00:59N 52°06' E 004°16'0 0.0
2019-Apr-10 00:29N 52°06' E 004°16'0 0.0
2019-Apr-09 23:59N 52°06' E 004°16'0 0.0
2019-Apr-09 23:29N 52°06' E 004°16'0 0.0
2019-Apr-09 22:59N 52°06' E 004°16'0 0.0
2019-Apr-09 22:29N 52°06' E 004°16'0 0.0
2019-Apr-09 21:59N 52°06' E 004°16'0 0.0
2019-Apr-09 21:29N 52°06' E 004°16'0 0.0
2019-Apr-09 20:59N 52°06' E 004°16'0 0.0
2019-Apr-09 20:29N 52°06' E 004°16'0 0.0
2019-Apr-09 19:59N 52°06' E 004°16'0 0.0
2019-Apr-09 19:29N 52°06' E 004°16'0 0.0
2019-Apr-09 18:59N 52°06' E 004°16'0 0.0
2019-Apr-09 18:29N 52°06' E 004°16'0 0.0
2019-Apr-09 17:56N 52°06' E 004°16'0 0.0
2019-Apr-09 17:29N 52°06' E 004°16'0 0.0
2019-Apr-09 16:59N 52°06' E 004°16'0 0.0
2019-Apr-09 16:29N 52°06' E 004°16'0 0.0
2019-Apr-09 15:59N 52°06' E 004°16'0 0.0
2019-Apr-09 15:29N 52°06' E 004°16'0 0.0
2019-Apr-09 14:59N 52°06' E 004°16'0 0.0
2019-Apr-09 14:29N 52°06' E 004°16'0 0.0
2019-Apr-09 13:59N 52°06' E 004°16'0 0.0
2019-Apr-09 13:29N 52°06' E 004°16'0 0.0
2019-Apr-09 12:59N 52°06' E 004°16'0 0.0
2019-Apr-09 12:29N 52°06' E 004°16'0 0.0
2019-Apr-09 11:59N 52°06' E 004°16'0 0.0
2019-Apr-09 11:29N 52°06' E 004°16'0 0.0
2019-Apr-09 10:59N 52°06' E 004°16'0 0.0
2019-Apr-09 10:29N 52°06' E 004°16'0 0.0
2019-Apr-09 09:59N 52°06' E 004°16'0 0.0
2019-Apr-09 09:29N 52°06' E 004°16'0 0.0
2019-Apr-09 08:56N 52°06' E 004°16'0 0.0
2019-Apr-09 08:29N 52°06' E 004°16'0 0.0
2019-Apr-09 07:59N 52°06' E 004°16'0 0.0
2019-Apr-09 07:29N 52°06' E 004°16'0 0.0
2019-Apr-09 06:59N 52°06' E 004°16'0 0.0
2019-Apr-09 06:29N 52°06' E 004°16'0 0.0
2019-Apr-09 05:59N 52°06' E 004°16'0 0.0
2019-Apr-09 05:29N 52°06' E 004°16'0 0.0
2019-Apr-09 04:59N 52°06' E 004°16'0 0.0
2019-Apr-09 04:29N 52°06' E 004°16'0 0.0
2019-Apr-09 03:59N 52°06' E 004°16'0 0.0
2019-Apr-09 03:29N 52°06' E 004°16'0 0.0
2019-Apr-09 02:59N 52°06' E 004°16'0 0.0
2019-Apr-09 02:29N 52°06' E 004°16'0 0.0
2019-Apr-09 01:59N 52°06' E 004°16'0 0.0
2019-Apr-09 01:29N 52°06' E 004°16'0 0.0
2019-Apr-09 00:59N 52°06' E 004°16'0 0.0
2019-Apr-09 00:29N 52°06' E 004°16'0 0.0
2019-Apr-08 23:59N 52°06' E 004°16'0 0.0
2019-Apr-08 23:29N 52°06' E 004°16'0 0.0
2019-Apr-08 22:59N 52°06' E 004°16'0 0.0
2019-Apr-08 22:29N 52°06' E 004°16'0 0.0
2019-Apr-08 21:59N 52°06' E 004°16'0 0.0
2019-Apr-08 21:29N 52°06' E 004°16'0 0.0
2019-Apr-08 20:59N 52°06' E 004°16'  
Track history (hours):
 
Tides and Currents Weather Stations Pressure Air Temp Water Temp Dewpoint Dewpoint Depression Visibility Wind Speed Wind Dir Waves Ship Positions

Oceanographic research ship Zirfaea (Netherlands)

Detailed information on ship capabilities available from University of Delaware's Ocean Information Center.

Last reported at 2019-Apr-18 20:58 UTC. Time now 2019-Apr-18 21:03 UTC.
Position N 52°06' E 004°16'.

Length 63 m; draft 3.9 m.

Type: Law enforcement. MMSI: 246096000.

Date/timePositionNaut miles runAvg speedWind from/ knotsBaromVisibWave heightAir tempDewpointWater temp
2019-Apr-18 20:58N 52°06' E 004°16'0 0.0
2019-Apr-18 20:28N 52°06' E 004°16'0 0.0
2019-Apr-18 19:58N 52°06' E 004°16'0 0.0
2019-Apr-18 19:28N 52°06' E 004°16'0 0.0
2019-Apr-18 18:58N 52°06' E 004°16'0 0.0
2019-Apr-18 18:28N 52°06' E 004°16'0 0.0
2019-Apr-18 17:58N 52°06' E 004°16'0 0.0
2019-Apr-18 17:28N 52°06' E 004°16'0 0.0
2019-Apr-18 16:58N 52°06' E 004°16'0 0.0
2019-Apr-18 16:28N 52°06' E 004°16'0 0.0
2019-Apr-18 15:58N 52°06' E 004°16'0 0.0
2019-Apr-18 15:28N 52°06' E 004°16'0 0.0
2019-Apr-18 14:58N 52°06' E 004°16'0 0.0
2019-Apr-18 14:28N 52°06' E 004°16'0 0.0
2019-Apr-18 13:58N 52°06' E 004°16'0 0.0
2019-Apr-18 13:28N 52°06' E 004°16'0 0.0
2019-Apr-18 12:58N 52°06' E 004°16'0 0.0
2019-Apr-18 12:28N 52°06' E 004°16'5 5.3
2019-Apr-18 11:30N 52°04' E 004°08'510.1
2019-Apr-18 11:00N 52°01' E 004°01'5 9.2
2019-Apr-18 10:30N 51°58' E 003°56'2 4.3
2019-Apr-18 10:00N 51°56' E 003°54'4 8.0
2019-Apr-18 09:30N 51°52' E 003°52'1 2.7
2019-Apr-18 09:00N 51°52' E 003°50'1 2.2
2019-Apr-18 08:30N 51°51' E 003°50'3 5.4
2019-Apr-18 07:54N 51°50' E 003°45'4 7.3
2019-Apr-18 07:17N 51°47' E 003°39'4 7.2
2019-Apr-18 06:41N 51°45' E 003°32'1 5.7
2019-Apr-18 06:29N 51°45' E 003°31'2 3.1
2019-Apr-18 05:58N 51°43' E 003°29'1 1.6
2019-Apr-18 05:30N 51°44' E 003°28'0 0.1
2019-Apr-18 04:57N 51°44' E 003°28'1 2.6
2019-Apr-18 04:30N 51°44' E 003°26'0 0.3
2019-Apr-18 03:59N 51°44' E 003°26'1 0.9
2019-Apr-18 03:25N 51°43' E 003°27'0 0.2
2019-Apr-18 02:48N 51°43' E 003°27'1 0.2
2019-Apr-17 23:17N 51°44' E 003°27'1 4.6
2019-Apr-17 22:59N 51°43' E 003°26'9 5.1
2019-Apr-17 21:14N 51°34' E 003°25'1 2.5
2019-Apr-17 20:56N 51°33' E 003°25'910.0
2019-Apr-17 20:01N 51°39' E 003°14'6 8.0
2019-Apr-17 19:17N 51°44' E 003°09'17 9.9
2019-Apr-17 17:32N 51°54' E 002°46'010.5
2019-Apr-17 17:30N 51°54' E 002°46'4 6.7
2019-Apr-17 16:50N 51°57' E 002°40'6 8.7
2019-Apr-17 16:06N 52°02' E 002°47'14 9.9
2019-Apr-17 14:41N 52°13' E 003°02'2 9.4
2019-Apr-17 14:28N 52°15' E 003°03'11 9.1
2019-Apr-17 13:13N 52°24' E 003°14'52 8.7
2019-Apr-17 07:19N 52°58' E 004°18'310.7
2019-Apr-17 07:00N 52°57' E 004°24'510.1
2019-Apr-17 06:30N 53°01' E 004°29'510.9
2019-Apr-17 06:00N 53°06' E 004°34'510.7
2019-Apr-17 05:30N 53°10' E 004°39'510.1
2019-Apr-17 04:58N 53°15' E 004°44'59 1.9
2019-Apr-15 22:39N 53°30' E 003°09'1 9.9
2019-Apr-15 22:31N 53°29' E 003°09'5 9.8
2019-Apr-15 22:00N 53°24' E 003°10'5 9.7
2019-Apr-15 21:30N 53°19' E 003°10'5 9.6
2019-Apr-15 21:00N 53°14' E 003°10'5 9.2
2019-Apr-15 20:30N 53°10' E 003°11'4 9.0
2019-Apr-15 20:00N 53°05' E 003°11'4 8.7
2019-Apr-15 19:30N 53°01' E 003°12'4 8.7
2019-Apr-15 19:00N 52°57' E 003°12'4 8.7
2019-Apr-15 18:30N 52°52' E 003°14'21 9.2
2019-Apr-15 16:10N 52°34' E 003°32'3 5.1
2019-Apr-15 15:31N 52°32' E 003°36'1 9.0
2019-Apr-15 15:24N 52°32' E 003°38'510.3
2019-Apr-15 14:58N 52°29' E 003°44'510.4
2019-Apr-15 14:29N 52°27' E 003°52'510.0
2019-Apr-15 14:00N 52°25' E 003°58'510.0
2019-Apr-15 13:30N 52°22' E 004°05'4 7.3
2019-Apr-15 13:00N 52°20' E 004°10'3 6.7
2019-Apr-15 12:31N 52°19' E 004°15'2 4.6
2019-Apr-15 12:01N 52°18' E 004°18'4 8.0
2019-Apr-15 11:30N 52°16' E 004°24'1 1.5
2019-Apr-15 11:00N 52°15' E 004°24'2 4.8
2019-Apr-15 10:30N 52°14' E 004°21'3 6.1
2019-Apr-15 10:01N 52°11' E 004°18'4 7.7
2019-Apr-15 09:30N 52°08' E 004°15'2 3.3
2019-Apr-15 08:59N 52°06' E 004°16'0 0.0
2019-Apr-15 08:29N 52°06' E 004°16'0 0.0
2019-Apr-15 07:59N 52°06' E 004°16'0 0.0
2019-Apr-15 06:59N 52°06' E 004°16'0 0.0
2019-Apr-15 06:29N 52°06' E 004°16'0 0.0
2019-Apr-15 05:59N 52°06' E 004°16'0 0.0
2019-Apr-15 05:29N 52°06' E 004°16'0 0.0
2019-Apr-15 04:59N 52°06' E 004°16'0 0.0
2019-Apr-15 04:29N 52°06' E 004°16'0 0.0
2019-Apr-15 03:59N 52°06' E 004°16'0 0.0
2019-Apr-15 03:29N 52°06' E 004°16'0 0.0
2019-Apr-15 02:56N 52°06' E 004°16'0 0.0
2019-Apr-15 02:29N 52°06' E 004°16'0 0.0
2019-Apr-15 01:59N 52°06' E 004°16'0 0.0
2019-Apr-15 01:29N 52°06' E 004°16'0 0.0
2019-Apr-15 00:59N 52°06' E 004°16'0 0.0
2019-Apr-15 00:29N 52°06' E 004°16'0 0.0
2019-Apr-14 23:59N 52°06' E 004°16'0 0.0
2019-Apr-14 23:29N 52°06' E 004°16'0 0.0
2019-Apr-14 22:59N 52°06' E 004°16'0 0.0
2019-Apr-14 22:29N 52°06' E 004°16'0 0.0
2019-Apr-14 21:59N 52°06' E 004°16'0 0.0
2019-Apr-14 21:29N 52°06' E 004°16'0 0.0
2019-Apr-14 20:59N 52°06' E 004°16'0 0.0
2019-Apr-14 20:20N 52°06' E 004°16'0 0.0
2019-Apr-14 19:56N 52°06' E 004°16'0 0.0
2019-Apr-14 19:29N 52°06' E 004°16'0 0.0
2019-Apr-14 18:59N 52°06' E 004°16'0 0.0
2019-Apr-14 18:29N 52°06' E 004°16'0 0.0
2019-Apr-14 17:59N 52°06' E 004°16'0 0.0
2019-Apr-14 17:29N 52°06' E 004°16'0 0.0
2019-Apr-14 16:59N 52°06' E 004°16'0 0.0
2019-Apr-14 16:29N 52°06' E 004°16'0 0.0
2019-Apr-14 15:59N 52°06' E 004°16'0 0.0
2019-Apr-14 15:29N 52°06' E 004°16'0 0.0
2019-Apr-14 14:59N 52°06' E 004°16'0 0.0
2019-Apr-14 14:29N 52°06' E 004°16'0 0.0
2019-Apr-14 13:59N 52°06' E 004°16'0 0.0
2019-Apr-14 13:29N 52°06' E 004°16'0 0.0
2019-Apr-14 12:59N 52°06' E 004°16'0 0.0
2019-Apr-14 12:29N 52°06' E 004°16'0 0.0
2019-Apr-14 11:59N 52°06' E 004°16'0 0.0
2019-Apr-14 10:59N 52°06' E 004°16'0 0.0
2019-Apr-14 10:29N 52°06' E 004°16'0 0.0
2019-Apr-14 09:59N 52°06' E 004°16'0 0.0
2019-Apr-14 09:29N 52°06' E 004°16'0 0.0
2019-Apr-14 08:59N 52°06' E 004°16'0 0.0
2019-Apr-14 08:29N 52°06' E 004°16'0 0.0
2019-Apr-14 07:59N 52°06' E 004°16'0 0.0
2019-Apr-14 07:29N 52°06' E 004°16'0 0.0
2019-Apr-14 06:59N 52°06' E 004°16'0 0.0
2019-Apr-14 06:29N 52°06' E 004°16'0 0.0
2019-Apr-14 05:59N 52°06' E 004°16'0 0.0
2019-Apr-14 05:29N 52°06' E 004°16'0 0.0
2019-Apr-14 04:59N 52°06' E 004°16'0 0.0
2019-Apr-14 04:29N 52°06' E 004°16'0 0.0
2019-Apr-14 03:59N 52°06' E 004°16'0 0.0
2019-Apr-14 03:29N 52°06' E 004°16'0 0.0
2019-Apr-14 02:59N 52°06' E 004°16'0 0.0
2019-Apr-14 02:29N 52°06' E 004°16'0 0.0
2019-Apr-14 01:59N 52°06' E 004°16'0 0.0
2019-Apr-14 01:29N 52°06' E 004°16'0 0.0
2019-Apr-14 00:56N 52°06' E 004°16'0 0.0
2019-Apr-14 00:29N 52°06' E 004°16'0 0.0
2019-Apr-13 23:59N 52°06' E 004°16'0 0.0
2019-Apr-13 23:29N 52°06' E 004°16'0 0.0
2019-Apr-13 22:59N 52°06' E 004°16'0 0.0
2019-Apr-13 22:29N 52°06' E 004°16'0 0.0
2019-Apr-13 21:59N 52°06' E 004°16'0 0.0
2019-Apr-13 21:29N 52°06' E 004°16'0 0.0
2019-Apr-13 20:59N 52°06' E 004°16'0 0.0
2019-Apr-13 20:29N 52°06' E 004°16'0 0.0
2019-Apr-13 19:56N 52°06' E 004°16'0 0.0
2019-Apr-13 19:29N 52°06' E 004°16'0 0.0
2019-Apr-13 18:59N 52°06' E 004°16'0 0.0
2019-Apr-13 18:29N 52°06' E 004°16'0 0.0
2019-Apr-13 17:59N 52°06' E 004°16'0 0.0
2019-Apr-13 17:26N 52°06' E 004°16'0 0.0
2019-Apr-13 16:56N 52°06' E 004°16'0 0.0
2019-Apr-13 16:29N 52°06' E 004°16'0 0.0
2019-Apr-13 15:59N 52°06' E 004°16'0 0.0
2019-Apr-13 15:29N 52°06' E 004°16'0 0.0
2019-Apr-13 14:59N 52°06' E 004°16'0 0.0
2019-Apr-13 14:29N 52°06' E 004°16'0 0.0
2019-Apr-13 13:59N 52°06' E 004°16'0 0.0
2019-Apr-13 13:29N 52°06' E 004°16'0 0.0
2019-Apr-13 12:59N 52°06' E 004°16'0 0.0
2019-Apr-13 12:29N 52°06' E 004°16'0 0.0
2019-Apr-13 11:59N 52°06' E 004°16'0 0.0
2019-Apr-13 11:29N 52°06' E 004°16'0 0.0
2019-Apr-13 10:59N 52°06' E 004°16'0 0.0
2019-Apr-13 10:29N 52°06' E 004°16'0 0.0
2019-Apr-13 09:29N 52°06' E 004°16'0 0.0
2019-Apr-13 08:59N 52°06' E 004°16'0 0.0
2019-Apr-13 08:29N 52°06' E 004°16'0 0.0
2019-Apr-13 07:59N 52°06' E 004°16'0 0.0
2019-Apr-13 07:30N 52°06' E 004°16'0 0.0
2019-Apr-13 06:59N 52°06' E 004°16'0 0.0
2019-Apr-13 06:29N 52°06' E 004°16'0 0.0
2019-Apr-13 05:59N 52°06' E 004°16'0 0.0
2019-Apr-13 05:29N 52°06' E 004°16'0 0.0
2019-Apr-13 04:59N 52°06' E 004°16'0 0.0
2019-Apr-13 04:29N 52°06' E 004°16'0 0.0
2019-Apr-13 03:59N 52°06' E 004°16'0 0.0
2019-Apr-13 03:29N 52°06' E 004°16'0 0.0
2019-Apr-13 02:59N 52°06' E 004°16'0 0.0
2019-Apr-13 02:29N 52°06' E 004°16'0 0.0
2019-Apr-13 01:59N 52°06' E 004°16'0 0.0
2019-Apr-13 01:29N 52°06' E 004°16'0 0.0
2019-Apr-13 00:59N 52°06' E 004°16'0 0.0
2019-Apr-13 00:29N 52°06' E 004°16'0 0.0
2019-Apr-12 23:59N 52°06' E 004°16'0 0.0
2019-Apr-12 23:29N 52°06' E 004°16'0 0.0
2019-Apr-12 22:59N 52°06' E 004°16'0 0.0
2019-Apr-12 22:26N 52°06' E 004°16'0 0.0
2019-Apr-12 21:59N 52°06' E 004°16'0 0.0
2019-Apr-12 21:29N 52°06' E 004°16'0 0.0
2019-Apr-12 21:00N 52°06' E 004°16'0 0.0
2019-Apr-12 20:29N 52°06' E 004°16'0 0.0
2019-Apr-12 19:59N 52°06' E 004°16'0 0.0
2019-Apr-12 19:29N 52°06' E 004°16'0 0.0
2019-Apr-12 18:59N 52°06' E 004°16'0 0.0
2019-Apr-12 18:29N 52°06' E 004°16'0 0.0
2019-Apr-12 17:56N 52°06' E 004°16'0 0.0
2019-Apr-12 17:29N 52°06' E 004°16'0 0.0
2019-Apr-12 16:59N 52°06' E 004°16'0 0.0
2019-Apr-12 16:29N 52°06' E 004°16'0 0.0
2019-Apr-12 15:59N 52°06' E 004°16'0 0.0
2019-Apr-12 15:29N 52°06' E 004°16'0 0.0
2019-Apr-12 14:59N 52°06' E 004°16'0 0.0
2019-Apr-12 14:29N 52°06' E 004°16'0 0.0
2019-Apr-12 13:59N 52°06' E 004°16'0 0.0
2019-Apr-12 13:29N 52°06' E 004°16'0 0.0
2019-Apr-12 12:59N 52°06' E 004°16'0 0.0
2019-Apr-12 12:29N 52°06' E 004°16'0 0.0
2019-Apr-12 11:59N 52°06' E 004°16'0 0.0
2019-Apr-12 11:29N 52°06' E 004°16'0 0.0
2019-Apr-12 10:59N 52°06' E 004°16'0 0.0
2019-Apr-12 10:29N 52°06' E 004°16'0 0.0
2019-Apr-12 09:59N 52°06' E 004°16'0 0.0
2019-Apr-12 09:29N 52°06' E 004°16'0 0.0
2019-Apr-12 08:59N 52°06' E 004°16'0 0.0
2019-Apr-12 08:29N 52°06' E 004°16'0 0.0
2019-Apr-12 07:59N 52°06' E 004°16'0 0.0
2019-Apr-12 07:29N 52°06' E 004°16'0 0.0
2019-Apr-12 06:59N 52°06' E 004°16'0 0.0
2019-Apr-12 06:29N 52°06' E 004°16'0 0.0
2019-Apr-12 05:59N 52°06' E 004°16'0 0.0
2019-Apr-12 05:29N 52°06' E 004°16'0 0.0
2019-Apr-12 04:59N 52°06' E 004°16'0 0.0
2019-Apr-12 04:29N 52°06' E 004°16'0 0.0
2019-Apr-12 03:59N 52°06' E 004°16'0 0.0
2019-Apr-12 03:29N 52°06' E 004°16'0 0.0
2019-Apr-12 02:59N 52°06' E 004°16'0 0.0
2019-Apr-12 02:29N 52°06' E 004°16'0 0.0
2019-Apr-12 01:59N 52°06' E 004°16'0 0.0
2019-Apr-12 01:29N 52°06' E 004°16'0 0.0
2019-Apr-12 00:59N 52°06' E 004°16'0 0.0
2019-Apr-12 00:29N 52°06' E 004°16'0 0.0
2019-Apr-11 23:59N 52°06' E 004°16'0 0.0
2019-Apr-11 23:29N 52°06' E 004°16'0 0.0
2019-Apr-11 22:59N 52°06' E 004°16'0 0.0
2019-Apr-11 22:29N 52°06' E 004°16'0 0.0
2019-Apr-11 21:59N 52°06' E 004°16'0 0.0
2019-Apr-11 21:29N 52°06' E 004°16'0 0.0
2019-Apr-11 20:59N 52°06' E 004°16'0 0.0
2019-Apr-11 20:29N 52°06' E 004°16'0 0.0
2019-Apr-11 19:59N 52°06' E 004°16'0 0.0
2019-Apr-11 19:29N 52°06' E 004°16'0 0.0
2019-Apr-11 18:59N 52°06' E 004°16'0 0.0
2019-Apr-11 18:29N 52°06' E 004°16'0 0.0
2019-Apr-11 17:59N 52°06' E 004°16'0 0.0
2019-Apr-11 17:29N 52°06' E 004°16'0 0.0
2019-Apr-11 16:59N 52°06' E 004°16'0 0.0
2019-Apr-11 16:29N 52°06' E 004°16'0 0.0
2019-Apr-11 15:59N 52°06' E 004°16'0 0.0
2019-Apr-11 15:29N 52°06' E 004°16'0 0.0
2019-Apr-11 14:59N 52°06' E 004°16'0 0.0
2019-Apr-11 14:29N 52°06' E 004°16'0 0.0
2019-Apr-11 13:59N 52°06' E 004°16'0 0.0
2019-Apr-11 13:29N 52°06' E 004°16'0 0.0
2019-Apr-11 12:59N 52°06' E 004°16'0 0.0
2019-Apr-11 12:29N 52°06' E 004°16'0 0.0
2019-Apr-11 11:59N 52°06' E 004°16'0 0.0
2019-Apr-11 11:29N 52°06' E 004°16'0 0.0
2019-Apr-11 10:59N 52°06' E 004°16'0 0.0
2019-Apr-11 10:29N 52°06' E 004°16'0 0.0
2019-Apr-11 09:59N 52°06' E 004°16'0 0.0
2019-Apr-11 09:29N 52°06' E 004°16'0 0.0
2019-Apr-11 08:59N 52°06' E 004°16'0 0.0
2019-Apr-11 08:29N 52°06' E 004°16'0 0.0
2019-Apr-11 07:29N 52°06' E 004°16'0 0.0
2019-Apr-11 06:59N 52°06' E 004°16'0 0.0
2019-Apr-11 06:29N 52°06' E 004°16'0 0.0
2019-Apr-11 05:59N 52°06' E 004°16'0 0.0
2019-Apr-11 05:29N 52°06' E 004°16'0 0.0
2019-Apr-11 04:59N 52°06' E 004°16'0 0.0
2019-Apr-11 04:29N 52°06' E 004°16'0 0.0
2019-Apr-11 03:59N 52°06' E 004°16'0 0.0
2019-Apr-11 03:29N 52°06' E 004°16'0 0.0
2019-Apr-11 02:59N 52°06' E 004°16'0 0.0
2019-Apr-11 02:29N 52°06' E 004°16'0 0.0
2019-Apr-11 01:56N 52°06' E 004°16'0 0.0
2019-Apr-11 01:29N 52°06' E 004°16'0 0.0
2019-Apr-11 00:59N 52°06' E 004°16'0 0.0
2019-Apr-11 00:29N 52°06' E 004°16'0 0.0
2019-Apr-10 23:59N 52°06' E 004°16'0 0.0
2019-Apr-10 23:29N 52°06' E 004°16'0 0.0
2019-Apr-10 22:59N 52°06' E 004°16'0 0.0
2019-Apr-10 22:29N 52°06' E 004°16'0 0.0
2019-Apr-10 21:59N 52°06' E 004°16'0 0.0
2019-Apr-10 21:29N 52°06' E 004°16'0 0.0
2019-Apr-10 20:59N 52°06' E 004°16'0 0.0
2019-Apr-10 20:29N 52°06' E 004°16'0 0.0
2019-Apr-10 19:59N 52°06' E 004°16'0 0.0
2019-Apr-10 19:29N 52°06' E 004°16'0 0.0
2019-Apr-10 18:59N 52°06' E 004°16'0 0.0
2019-Apr-10 18:29N 52°06' E 004°16'0 0.0
2019-Apr-10 17:59N 52°06' E 004°16'0 0.0
2019-Apr-10 17:29N 52°06' E 004°16'0 0.0
2019-Apr-10 16:59N 52°06' E 004°16'0 0.0
2019-Apr-10 16:29N 52°06' E 004°16'0 0.0
2019-Apr-10 15:59N 52°06' E 004°16'0 0.0
2019-Apr-10 15:29N 52°06' E 004°16'0 0.0
2019-Apr-10 14:59N 52°06' E 004°16'0 0.0
2019-Apr-10 14:29N 52°06' E 004°16'0 0.0
2019-Apr-10 13:59N 52°06' E 004°16'0 0.0
2019-Apr-10 13:29N 52°06' E 004°16'0 0.0
2019-Apr-10 12:59N 52°06' E 004°16'0 0.0
2019-Apr-10 12:29N 52°06' E 004°16'0 0.0
2019-Apr-10 11:59N 52°06' E 004°16'0 0.0
2019-Apr-10 11:29N 52°06' E 004°16'0 0.0
2019-Apr-10 10:59N 52°06' E 004°16'0 0.0
2019-Apr-10 10:29N 52°06' E 004°16'0 0.0
2019-Apr-10 09:59N 52°06' E 004°16'0 0.0
2019-Apr-10 09:29N 52°06' E 004°16'0 0.0
2019-Apr-10 08:59N 52°06' E 004°16'0 0.0
2019-Apr-10 08:29N 52°06' E 004°16'0 0.0
2019-Apr-10 07:59N 52°06' E 004°16'0 0.0
2019-Apr-10 07:29N 52°06' E 004°16'0 0.0
2019-Apr-10 06:59N 52°06' E 004°16'0 0.0
2019-Apr-10 06:29N 52°06' E 004°16'0 0.0
2019-Apr-10 05:59N 52°06' E 004°16'0 0.0
2019-Apr-10 05:29N 52°06' E 004°16'0 0.0
2019-Apr-10 04:59N 52°06' E 004°16'0 0.0
2019-Apr-10 04:29N 52°06' E 004°16'0 0.0
2019-Apr-10 03:59N 52°06' E 004°16'0 0.0
2019-Apr-10 03:29N 52°06' E 004°16'0 0.0
2019-Apr-10 02:59N 52°06' E 004°16'0 0.0
2019-Apr-10 02:29N 52°06' E 004°16'0 0.0
2019-Apr-10 01:59N 52°06' E 004°16'0 0.0
2019-Apr-10 01:29N 52°06' E 004°16'0 0.0
2019-Apr-10 00:59N 52°06' E 004°16'0 0.0
2019-Apr-10 00:29N 52°06' E 004°16'0 0.0
2019-Apr-09 23:59N 52°06' E 004°16'0 0.0
2019-Apr-09 23:29N 52°06' E 004°16'0 0.0
2019-Apr-09 22:59N 52°06' E 004°16'0 0.0
2019-Apr-09 22:29N 52°06' E 004°16'0 0.0
2019-Apr-09 21:59N 52°06' E 004°16'0 0.0
2019-Apr-09 21:29N 52°06' E 004°16'0 0.0
2019-Apr-09 20:59N 52°06' E 004°16'0 0.0
2019-Apr-09 20:29N 52°06' E 004°16'0 0.0
2019-Apr-09 19:59N 52°06' E 004°16'0 0.0
2019-Apr-09 19:29N 52°06' E 004°16'0 0.0
2019-Apr-09 18:59N 52°06' E 004°16'0 0.0
2019-Apr-09 18:29N 52°06' E 004°16'0 0.0
2019-Apr-09 17:56N 52°06' E 004°16'0 0.0
2019-Apr-09 17:29N 52°06' E 004°16'0 0.0
2019-Apr-09 16:59N 52°06' E 004°16'0 0.0
2019-Apr-09 16:29N 52°06' E 004°16'0 0.0
2019-Apr-09 15:59N 52°06' E 004°16'0 0.0
2019-Apr-09 15:29N 52°06' E 004°16'0 0.0
2019-Apr-09 14:59N 52°06' E 004°16'0 0.0
2019-Apr-09 14:29N 52°06' E 004°16'0 0.0
2019-Apr-09 13:59N 52°06' E 004°16'0 0.0
2019-Apr-09 13:29N 52°06' E 004°16'0 0.0
2019-Apr-09 12:59N 52°06' E 004°16'0 0.0
2019-Apr-09 12:29N 52°06' E 004°16'0 0.0
2019-Apr-09 11:59N 52°06' E 004°16'0 0.0
2019-Apr-09 11:29N 52°06' E 004°16'0 0.0
2019-Apr-09 10:59N 52°06' E 004°16'0 0.0
2019-Apr-09 10:29N 52°06' E 004°16'0 0.0
2019-Apr-09 09:59N 52°06' E 004°16'0 0.0
2019-Apr-09 09:29N 52°06' E 004°16'0 0.0
2019-Apr-09 08:56N 52°06' E 004°16'0 0.0
2019-Apr-09 08:29N 52°06' E 004°16'0 0.0
2019-Apr-09 07:59N 52°06' E 004°16'0 0.0
2019-Apr-09 07:29N 52°06' E 004°16'0 0.0
2019-Apr-09 06:59N 52°06' E 004°16'0 0.0
2019-Apr-09 06:29N 52°06' E 004°16'0 0.0
2019-Apr-09 05:59N 52°06' E 004°16'0 0.0
2019-Apr-09 05:29N 52°06' E 004°16'0 0.0
2019-Apr-09 04:59N 52°06' E 004°16'0 0.0
2019-Apr-09 04:29N 52°06' E 004°16'0 0.0
2019-Apr-09 03:59N 52°06' E 004°16'0 0.0
2019-Apr-09 03:29N 52°06' E 004°16'0 0.0
2019-Apr-09 02:59N 52°06' E 004°16'0 0.0
2019-Apr-09 02:29N 52°06' E 004°16'0 0.0
2019-Apr-09 01:59N 52°06' E 004°16'0 0.0
2019-Apr-09 01:29N 52°06' E 004°16'0 0.0
2019-Apr-09 00:59N 52°06' E 004°16'0 0.0
2019-Apr-09 00:29N 52°06' E 004°16'0 0.0
2019-Apr-08 23:59N 52°06' E 004°16'0 0.0
2019-Apr-08 23:29N 52°06' E 004°16'0 0.0
2019-Apr-08 22:59N 52°06' E 004°16'0 0.0
2019-Apr-08 22:29N 52°06' E 004°16'0 0.0
2019-Apr-08 21:59N 52°06' E 004°16'0 0.0
2019-Apr-08 21:29N 52°06' E 004°16'0 0.0
2019-Apr-08 20:59N 52°06' E 004°16'  

Dump ship's entire track history